createdAt,value
2022-10-15T00:02:01.041Z,15.09
2022-10-15T00:07:04.014Z,14.98
2022-10-15T00:12:06.670Z,17.16
2022-10-15T00:17:09.289Z,15.41
2022-10-15T00:22:11.897Z,15.12
2022-10-15T00:27:14.552Z,17.31
2022-10-15T00:32:18.238Z,15.61
2022-10-15T00:37:21.536Z,14.71
2022-10-15T00:42:24.612Z,17.32
2022-10-15T00:47:38.380Z,16.53
2022-10-15T00:52:44.044Z,14.42
2022-10-15T00:57:49.704Z,15.87
2022-10-15T01:02:52.330Z,17.52
2022-10-15T01:07:54.940Z,15.32
2022-10-15T01:13:24.902Z,15.18
2022-10-15T01:18:39.607Z,17.59
2022-10-15T01:23:47.948Z,15.80
2022-10-15T01:29:05.017Z,15.60
2022-10-15T01:34:24.600Z,17.36
2022-10-15T01:39:44.906Z,15.10
2022-10-15T01:45:01.354Z,15.30
2022-10-15T01:50:06.476Z,17.28
2022-10-15T01:55:14.006Z,15.19
2022-10-15T02:00:17.211Z,15.09
2022-10-15T02:05:27.198Z,17.40
2022-10-15T02:10:59.804Z,15.80
2022-10-15T02:16:37.166Z,14.06
2022-10-15T02:21:52.273Z,16.76
2022-10-15T02:26:58.774Z,16.82
2022-10-15T02:32:03.135Z,14.54
2022-10-15T02:37:07.830Z,15.05
2022-10-15T02:42:10.738Z,17.41
2022-10-15T02:47:13.483Z,15.80
2022-10-15T02:52:16.180Z,14.12
2022-10-15T02:57:18.846Z,16.39
2022-10-15T03:02:21.463Z,16.49
2022-10-15T03:07:24.380Z,14.16
2022-10-15T03:12:27.593Z,14.57
2022-10-15T03:17:30.264Z,16.89
2022-10-15T03:22:32.995Z,15.17
2022-10-15T03:27:35.662Z,14.96
2022-10-15T03:32:38.395Z,16.73
2022-10-15T03:37:41.069Z,14.59
2022-10-15T03:42:43.761Z,14.76
2022-10-15T03:47:46.763Z,16.82
2022-10-15T03:52:49.464Z,14.89
2022-10-15T03:57:52.167Z,14.87
2022-10-15T04:02:54.861Z,17.06
2022-10-15T04:07:58.312Z,15.22
2022-10-15T04:13:00.974Z,15.25
2022-10-15T04:18:03.749Z,17.28
2022-10-15T04:23:06.394Z,15.40
2022-10-15T04:28:09.583Z,15.35
2022-10-15T04:33:12.178Z,17.38
2022-10-15T04:38:14.820Z,15.48
2022-10-15T04:43:17.420Z,15.44
2022-10-15T04:48:20.070Z,17.47
2022-10-15T04:53:22.706Z,15.44
2022-10-15T04:58:25.366Z,14.52
2022-10-15T05:03:28.429Z,17.15
2022-10-15T05:08:32.708Z,16.37
2022-10-15T05:13:36.004Z,14.40
2022-10-15T05:18:40.051Z,16.39
2022-10-15T05:23:44.169Z,17.07
2022-10-15T05:28:46.947Z,14.81
2022-10-15T05:33:52.017Z,15.13
2022-10-15T05:39:00.088Z,17.56
2022-10-15T05:44:02.812Z,16.22
2022-10-15T05:49:05.458Z,14.31
2022-10-15T05:54:08.065Z,14.99
2022-10-15T05:59:10.861Z,17.67
2022-10-15T06:04:13.553Z,17.13
2022-10-15T06:09:16.152Z,15.08
2022-10-15T06:14:18.873Z,15.72
2022-10-15T06:19:22.166Z,18.12
2022-10-15T06:24:24.965Z,16.50
2022-10-15T06:29:27.583Z,14.90
2022-10-15T06:34:30.568Z,16.73
2022-10-15T06:39:33.165Z,17.70
2022-10-15T06:44:35.774Z,15.52
2022-10-15T06:49:38.401Z,15.83
2022-10-15T06:54:41.139Z,18.26
2022-10-15T06:59:43.758Z,16.88
2022-10-15T07:04:47.306Z,15.08
2022-10-15T07:09:53.459Z,15.84
2022-10-15T07:14:56.070Z,18.36
2022-10-15T07:19:58.700Z,17.23
2022-10-15T07:25:01.354Z,15.40
2022-10-15T07:30:05.165Z,16.11
2022-10-15T07:35:08.249Z,18.79
2022-10-15T07:40:11.303Z,17.95
2022-10-15T07:45:14.286Z,15.86
2022-10-15T07:50:17.399Z,16.49
2022-10-15T07:55:19.964Z,18.89
2022-10-15T08:00:22.890Z,17.55
2022-10-15T08:05:25.652Z,17.40
2022-10-15T08:10:28.608Z,19.33
2022-10-15T08:15:31.220Z,17.78
2022-10-15T08:20:33.873Z,17.92
2022-10-15T08:25:38.134Z,19.37
2022-10-15T08:30:40.760Z,17.76
2022-10-15T08:35:43.984Z,19.44
2022-10-15T08:40:52.867Z,19.25
2022-10-15T08:45:59.652Z,17.57
2022-10-15T08:51:06.318Z,18.37
2022-10-15T08:56:17.662Z,20.04
2022-10-15T09:01:44.139Z,18.36
2022-10-15T09:06:49.860Z,17.24
2022-10-15T09:12:30.153Z,18.20
2022-10-15T09:17:36.237Z,19.76
2022-10-15T09:22:39.308Z,18.04
2022-10-15T09:27:42.779Z,19.19
2022-10-15T09:33:13.838Z,19.80
2022-10-15T09:38:40.843Z,18.33
2022-10-15T09:43:48.179Z,20.75
2022-10-15T09:48:59.622Z,20.24
2022-10-15T09:54:21.163Z,18.46
2022-10-15T09:59:25.968Z,17.29
2022-10-15T10:04:31.610Z,18.31
2022-10-15T10:09:56.149Z,20.12
2022-10-15T10:15:26.159Z,18.41
2022-10-15T10:20:33.426Z,19.33
2022-10-15T10:25:40.536Z,20.00
2022-10-15T10:31:03.340Z,18.33
2022-10-15T10:36:11.155Z,17.33
2022-10-15T10:41:13.941Z,19.45
2022-10-15T10:46:18.159Z,20.73
2022-10-15T10:51:26.915Z,19.33
2022-10-15T10:56:42.829Z,18.90
2022-10-15T11:01:46.649Z,21.44
2022-10-15T11:06:58.504Z,20.89
2022-10-15T11:12:22.380Z,19.82
2022-10-15T11:17:33.947Z,20.20
2022-10-15T11:23:01.339Z,21.58
2022-10-15T11:28:26.831Z,19.87
2022-10-15T11:34:04.282Z,18.79
2022-10-15T11:39:30.635Z,20.17
2022-10-15T11:44:42.995Z,21.39
2022-10-15T11:50:30.285Z,20.01
2022-10-15T11:55:44.450Z,19.28
2022-10-15T12:00:51.882Z,19.01
2022-10-15T12:06:04.097Z,20.26
2022-10-15T12:11:27.167Z,22.06
2022-10-15T12:16:49.975Z,20.45
2022-10-15T12:21:55.479Z,19.36
2022-10-15T12:27:15.522Z,18.95
2022-10-15T12:32:28.821Z,21.59
2022-10-15T12:37:38.358Z,20.81
2022-10-15T12:42:41.062Z,19.60
2022-10-15T12:47:51.127Z,18.96
2022-10-15T12:53:26.267Z,18.61
2022-10-15T12:58:39.181Z,20.36
2022-10-15T13:03:44.024Z,21.82
2022-10-15T13:09:02.991Z,20.30
2022-10-15T13:14:11.667Z,19.36
2022-10-15T13:19:23.989Z,18.75
2022-10-15T13:24:29.152Z,18.29
2022-10-15T13:29:32.159Z,19.59
2022-10-15T13:34:36.814Z,21.40
2022-10-15T13:39:41.413Z,19.76
2022-10-15T13:44:56.028Z,18.73
2022-10-15T13:50:32.962Z,19.99
2022-10-15T13:55:41.651Z,21.50
2022-10-15T14:00:51.379Z,19.83
2022-10-15T14:05:56.032Z,18.79
2022-10-15T14:10:59.644Z,19.75
2022-10-15T14:16:42.421Z,21.89
2022-10-15T14:21:48.687Z,20.12
2022-10-15T14:26:51.306Z,18.90
2022-10-15T14:31:54.200Z,19.71
2022-10-15T14:36:57.367Z,21.90
2022-10-15T14:42:03.299Z,20.38
2022-10-15T14:47:06.009Z,19.10
2022-10-15T14:52:16.678Z,19.78
2022-10-15T14:57:29.412Z,21.68
2022-10-15T15:02:32.723Z,19.94
2022-10-15T15:07:35.978Z,18.72
2022-10-15T15:12:40.485Z,19.47
2022-10-15T15:17:43.492Z,21.56
2022-10-15T15:22:50.273Z,19.88
2022-10-15T15:27:52.930Z,18.48
2022-10-15T15:32:55.625Z,19.16
2022-10-15T15:37:58.288Z,21.41
2022-10-15T15:43:00.928Z,19.86
2022-10-15T15:48:04.908Z,18.47
2022-10-15T15:53:07.627Z,19.22
2022-10-15T15:58:10.231Z,21.29
2022-10-15T16:03:14.380Z,19.63
2022-10-15T16:08:16.998Z,18.26
2022-10-15T16:13:19.602Z,19.10
2022-10-15T16:18:22.263Z,21.24
2022-10-15T16:23:25.145Z,19.61
2022-10-15T16:28:27.702Z,18.24
2022-10-15T16:33:30.348Z,18.50
2022-10-15T16:38:32.957Z,21.22
2022-10-15T16:43:36.572Z,20.31
2022-10-15T16:48:39.260Z,18.52
2022-10-15T16:53:45.142Z,18.99
2022-10-15T16:58:48.047Z,21.05
2022-10-15T17:03:51.438Z,19.26
2022-10-15T17:08:58.360Z,17.79
2022-10-15T17:14:04.454Z,18.87
2022-10-15T17:19:08.621Z,20.95
2022-10-15T17:24:13.984Z,19.26
2022-10-15T17:29:20.701Z,17.93
2022-10-15T17:34:24.077Z,19.96
2022-10-15T17:39:26.858Z,20.76
2022-10-15T17:44:29.567Z,18.82
2022-10-15T17:49:32.204Z,19.26
2022-10-15T17:54:34.857Z,21.45
2022-10-15T17:59:37.561Z,20.05
2022-10-15T18:04:40.480Z,19.54
2022-10-15T18:09:43.406Z,21.53
2022-10-15T18:14:46.080Z,19.89
2022-10-15T18:19:48.781Z,19.69
2022-10-15T18:24:51.376Z,21.62
2022-10-15T18:29:54.002Z,20.07
2022-10-15T18:34:56.754Z,19.93
2022-10-15T18:39:59.460Z,21.72
2022-10-15T18:45:02.119Z,19.95
2022-10-15T18:50:06.217Z,19.85
2022-10-15T18:55:09.735Z,21.70
2022-10-15T19:00:13.802Z,19.88
2022-10-15T19:05:16.607Z,19.77
2022-10-15T19:10:20.048Z,21.56
2022-10-15T19:15:22.845Z,19.85
2022-10-15T19:20:25.489Z,18.41
2022-10-15T19:25:28.166Z,19.60
2022-10-15T19:30:30.765Z,21.71
2022-10-15T19:35:44.529Z,20.37
2022-10-15T19:40:49.508Z,18.49
2022-10-15T19:45:52.400Z,19.18
2022-10-15T19:50:55.009Z,21.49
2022-10-15T19:56:00.838Z,20.40
2022-10-15T20:01:03.847Z,18.46
2022-10-15T20:06:08.291Z,19.05
2022-10-15T20:11:11.570Z,21.40
2022-10-15T20:16:15.935Z,20.06
2022-10-15T20:21:20.133Z,18.27
2022-10-15T20:26:25.152Z,19.10
2022-10-15T20:31:32.283Z,21.35
2022-10-15T20:36:35.215Z,19.99
2022-10-15T20:41:37.826Z,18.41
2022-10-15T20:46:46.854Z,20.45
2022-10-15T20:51:50.741Z,20.87
2022-10-15T20:56:55.236Z,18.83
2022-10-15T21:01:57.986Z,19.21
2022-10-15T21:07:00.754Z,21.41
2022-10-15T21:12:05.899Z,19.85
2022-10-15T21:17:08.574Z,18.14
2022-10-15T21:22:11.236Z,18.87
2022-10-15T21:27:13.879Z,21.24
2022-10-15T21:32:16.653Z,19.89
2022-10-15T21:37:19.293Z,18.17
2022-10-15T21:42:21.947Z,19.76
2022-10-15T21:47:25.548Z,21.00
2022-10-15T21:52:28.618Z,19.04
2022-10-15T21:57:32.752Z,19.25
2022-10-15T22:02:35.395Z,21.21
2022-10-15T22:07:40.229Z,19.49
2022-10-15T22:12:43.163Z,17.92
2022-10-15T22:17:45.812Z,18.94
2022-10-15T22:22:48.624Z,21.27
2022-10-15T22:27:51.613Z,19.98
2022-10-15T22:32:54.227Z,18.28
2022-10-15T22:37:58.138Z,18.95
2022-10-15T22:43:00.783Z,21.20
2022-10-15T22:48:03.611Z,19.69
2022-10-15T22:53:06.712Z,18.04
2022-10-15T22:58:09.339Z,19.86
2022-10-15T23:03:11.957Z,21.07
2022-10-15T23:08:14.584Z,19.11
2022-10-15T23:13:17.214Z,19.21
2022-10-15T23:18:20.023Z,20.69
2022-10-15T23:23:22.823Z,18.88
2022-10-15T23:28:25.657Z,20.48
2022-10-15T23:33:28.423Z,20.20
2022-10-15T23:38:31.426Z,19.64
2022-10-15T23:43:34.421Z,21.35
2022-10-15T23:48:37.465Z,19.82
2022-10-15T23:53:40.469Z,19.69
2022-10-15T23:58:46.944Z,21.47
